createdAt,value
2023-03-10T00:04:35.222Z,-0.65
2023-03-10T00:09:40.675Z,-0.64
2023-03-10T00:14:46.082Z,-0.73
2023-03-10T00:19:51.757Z,-0.81
2023-03-10T00:24:57.153Z,-0.81
2023-03-10T00:30:03.551Z,-0.79
2023-03-10T00:35:09.628Z,-0.79
2023-03-10T00:40:16.174Z,-0.81
2023-03-10T00:45:21.569Z,-0.82
2023-03-10T00:50:30.680Z,-0.79
2023-03-10T00:55:36.366Z,-0.72
2023-03-10T01:00:49.265Z,-0.65
2023-03-10T01:05:57.344Z,-0.62
2023-03-10T01:11:03.393Z,-0.64
2023-03-10T01:16:09.885Z,-0.61
2023-03-10T01:21:20.281Z,-0.55
2023-03-10T01:26:26.050Z,-0.54
2023-03-10T01:31:31.870Z,-0.59
2023-03-10T01:36:37.556Z,-0.64
2023-03-10T01:41:44.891Z,-0.64
2023-03-10T01:46:52.415Z,-0.65
2023-03-10T01:52:07.360Z,-0.69
2023-03-10T01:57:13.942Z,-0.74
2023-03-10T02:02:20.483Z,-0.74
2023-03-10T02:07:29.697Z,-0.72
2023-03-10T02:12:35.154Z,-0.75
2023-03-10T02:17:41.113Z,-0.80
2023-03-10T02:22:47.141Z,-0.82
2023-03-10T02:27:53.002Z,-0.84
2023-03-10T02:33:01.701Z,-0.89
2023-03-10T02:38:07.346Z,-0.94
2023-03-10T02:43:19.288Z,-0.92
2023-03-10T02:48:31.263Z,-0.85
2023-03-10T02:53:37.206Z,-0.84
2023-03-10T02:58:43.537Z,-0.86
2023-03-10T03:03:49.169Z,-0.84
2023-03-10T03:08:54.872Z,-0.81
2023-03-10T03:14:01.638Z,-0.80
2023-03-10T03:19:07.733Z,-0.84
2023-03-10T03:24:13.267Z,-0.82
2023-03-10T03:29:18.854Z,-0.80
2023-03-10T03:34:24.336Z,-0.80
2023-03-10T03:39:32.163Z,-0.80
2023-03-10T03:44:39.693Z,-0.81
2023-03-10T03:49:45.250Z,-0.82
2023-03-10T03:54:51.061Z,-0.80
2023-03-10T03:59:56.962Z,-0.79
2023-03-10T04:05:03.425Z,-0.75
2023-03-10T04:10:13.209Z,-0.68
2023-03-10T04:15:19.291Z,-0.67
2023-03-10T04:20:25.300Z,-0.65
2023-03-10T04:25:31.755Z,-0.63
2023-03-10T04:30:37.522Z,-0.60
2023-03-10T04:35:47.362Z,-0.54
2023-03-10T04:40:58.443Z,-0.50
2023-03-10T04:46:07.751Z,-0.48
2023-03-10T04:51:14.341Z,-0.45
2023-03-10T04:56:25.116Z,-0.40
2023-03-10T05:01:33.192Z,-0.38
2023-03-10T05:06:41.256Z,-0.41
2023-03-10T05:11:54.321Z,-0.38
2023-03-10T05:17:00.110Z,-0.34
2023-03-10T05:22:07.505Z,-0.34
2023-03-10T05:27:14.973Z,-0.36
2023-03-10T05:32:21.516Z,-0.34
2023-03-10T05:37:36.750Z,-0.27
2023-03-10T05:42:42.769Z,-0.23
2023-03-10T05:47:48.718Z,-0.16
2023-03-10T05:52:55.359Z,-0.05
2023-03-10T05:58:01.537Z,0.02
2023-03-10T06:03:08.105Z,0.08
2023-03-10T06:08:13.608Z,0.11
2023-03-10T06:13:20.776Z,0.19
2023-03-10T06:18:27.255Z,0.25
2023-03-10T06:23:32.714Z,0.27
2023-03-10T06:28:43.909Z,0.35
2023-03-10T06:33:49.282Z,0.48
2023-03-10T06:38:54.913Z,0.56
2023-03-10T06:44:00.565Z,0.61
2023-03-10T06:49:06.015Z,0.70
2023-03-10T06:54:25.179Z,0.79
2023-03-10T06:59:34.260Z,0.88
2023-03-10T07:04:40.248Z,1.04
2023-03-10T07:09:46.296Z,1.18
2023-03-10T07:14:51.888Z,1.31
2023-03-10T07:19:57.908Z,1.55
2023-03-10T07:25:05.087Z,1.79
2023-03-10T07:30:12.633Z,1.90
2023-03-10T07:35:18.484Z,1.93
2023-03-10T07:40:25.204Z,2.02
2023-03-10T07:45:33.108Z,2.16
2023-03-10T07:50:38.622Z,2.35
2023-03-10T07:55:44.089Z,2.59
2023-03-10T08:00:56.211Z,3.07
2023-03-10T08:06:03.869Z,3.48
2023-03-10T08:11:10.625Z,3.54
2023-03-10T08:16:18.173Z,3.62
2023-03-10T08:21:24.317Z,3.74
2023-03-10T08:26:29.817Z,3.87
2023-03-10T08:31:35.402Z,3.87
2023-03-10T08:36:41.821Z,3.81
2023-03-10T08:41:49.813Z,3.87
2023-03-10T08:46:55.332Z,3.89
2023-03-10T08:52:01.186Z,3.87
2023-03-10T08:57:06.850Z,3.87
2023-03-10T09:02:15.267Z,3.82
2023-03-10T09:07:20.801Z,3.92
2023-03-10T09:12:30.738Z,4.03
2023-03-10T09:17:40.823Z,4.32
2023-03-10T09:22:46.572Z,4.75
2023-03-10T09:27:52.047Z,4.98
2023-03-10T09:32:58.296Z,5.20
2023-03-10T09:38:04.084Z,5.29
2023-03-10T09:43:17.378Z,5.28
2023-03-10T09:48:41.744Z,5.25
2023-03-10T09:53:58.513Z,5.07
2023-03-10T09:59:11.278Z,5.00
2023-03-10T10:04:22.526Z,4.96
2023-03-10T10:09:42.299Z,4.87
2023-03-10T10:14:57.258Z,4.80
2023-03-10T10:20:09.114Z,4.79
2023-03-10T10:25:20.373Z,4.89
2023-03-10T10:30:32.882Z,4.90
2023-03-10T10:35:40.610Z,4.93
2023-03-10T10:40:51.484Z,5.02
2023-03-10T10:46:04.454Z,5.26
2023-03-10T10:51:24.688Z,5.54
2023-03-10T10:56:30.630Z,5.82
2023-03-10T11:01:52.231Z,6.23
2023-03-10T11:07:18.003Z,6.81
2023-03-10T11:12:31.768Z,7.15
2023-03-10T11:17:43.718Z,7.30
2023-03-10T11:22:53.713Z,7.36
2023-03-10T11:28:23.283Z,7.39
2023-03-10T11:33:35.247Z,7.41
2023-03-10T11:38:43.910Z,7.56
2023-03-10T11:43:58.759Z,8.01
2023-03-10T11:49:08.596Z,8.63
2023-03-10T11:54:20.433Z,8.99
2023-03-10T11:59:29.252Z,9.33
2023-03-10T12:04:40.921Z,9.70
2023-03-10T12:09:49.281Z,10.00
2023-03-10T12:14:55.721Z,10.56
2023-03-10T12:20:23.622Z,10.98
2023-03-10T12:25:51.123Z,11.19
2023-03-10T12:31:13.809Z,11.31
2023-03-10T12:36:40.671Z,11.26
2023-03-10T12:41:50.923Z,11.34
2023-03-10T12:47:21.817Z,11.35
2023-03-10T12:52:48.578Z,11.33
2023-03-10T12:58:07.986Z,11.30
2023-03-10T13:03:26.353Z,11.49
2023-03-10T13:19:21.066Z,12.25
2023-03-10T13:24:29.207Z,12.31
2023-03-10T13:29:35.361Z,12.40
2023-03-10T13:34:40.785Z,12.36
2023-03-10T13:39:46.162Z,12.33
2023-03-10T13:44:52.507Z,12.31
2023-03-10T13:50:01.958Z,12.26
2023-03-10T13:55:13.529Z,12.23
2023-03-10T14:00:22.223Z,12.26
2023-03-10T14:05:43.719Z,12.27
2023-03-10T14:10:49.946Z,12.24
2023-03-10T14:15:55.935Z,12.20
2023-03-10T14:21:25.971Z,12.13
2023-03-10T14:26:32.606Z,12.10
2023-03-10T14:31:37.971Z,12.09
2023-03-10T14:36:43.481Z,12.12
2023-03-10T14:41:48.940Z,12.10
2023-03-10T14:46:55.407Z,12.05
2023-03-10T14:52:00.893Z,12.02
2023-03-10T14:57:07.295Z,12.06
2023-03-10T15:02:20.832Z,12.09
2023-03-10T15:07:26.414Z,12.16
2023-03-10T15:12:32.294Z,12.23
2023-03-10T15:17:37.820Z,12.22
2023-03-10T15:22:43.577Z,12.13
2023-03-10T15:27:50.960Z,12.05
2023-03-10T15:32:56.801Z,11.92
2023-03-10T15:38:02.816Z,11.79
2023-03-10T15:43:09.230Z,11.62
2023-03-10T15:48:14.842Z,11.43
2023-03-10T15:53:20.417Z,11.24
2023-03-10T15:58:26.185Z,11.04
2023-03-10T16:03:33.877Z,10.89
2023-03-10T16:08:39.903Z,10.78
2023-03-10T16:13:46.974Z,10.69
2023-03-10T16:18:52.870Z,10.56
2023-03-10T16:23:58.715Z,10.35
2023-03-10T16:29:04.507Z,10.10
2023-03-10T16:34:10.224Z,9.88
2023-03-10T16:39:17.859Z,9.72
2023-03-10T16:44:23.733Z,9.64
2023-03-10T16:49:32.031Z,9.55
2023-03-10T16:54:38.324Z,9.41
2023-03-10T16:59:44.925Z,9.24
2023-03-10T17:04:50.733Z,9.06
2023-03-10T17:09:56.776Z,8.95
2023-03-10T17:15:03.154Z,8.86
2023-03-10T17:20:11.336Z,8.73
2023-03-10T17:25:17.059Z,8.61
2023-03-10T17:30:22.893Z,8.52
2023-03-10T17:35:28.344Z,8.45
2023-03-10T17:40:34.851Z,8.41
2023-03-10T17:45:40.403Z,8.43
2023-03-10T17:50:49.366Z,8.44
2023-03-10T17:55:57.075Z,8.30
2023-03-10T18:01:10.163Z,8.13
2023-03-10T18:06:18.976Z,7.89
2023-03-10T18:11:25.440Z,7.64
2023-03-10T18:16:33.172Z,7.45
2023-03-10T18:21:38.795Z,7.33
2023-03-10T18:26:45.747Z,7.21
2023-03-10T18:31:51.375Z,7.05
2023-03-10T18:36:57.034Z,6.86
2023-03-10T18:42:03.376Z,6.70
2023-03-10T18:47:08.822Z,6.62
2023-03-10T18:52:16.189Z,6.58
2023-03-10T18:57:21.721Z,6.41
2023-03-10T19:02:27.587Z,6.28
2023-03-10T19:07:34.337Z,6.30
2023-03-10T19:12:40.214Z,6.26
2023-03-10T19:17:46.057Z,6.20
2023-03-10T19:22:52.754Z,6.04
2023-03-10T19:27:58.726Z,5.91
2023-03-10T19:33:04.862Z,5.72
2023-03-10T19:38:10.479Z,5.67
2023-03-10T19:43:16.057Z,5.57
2023-03-10T19:48:21.690Z,5.46
2023-03-10T19:53:29.090Z,5.33
2023-03-10T19:58:34.838Z,5.25
2023-03-10T20:03:40.698Z,5.21
2023-03-10T20:08:46.268Z,5.20
2023-03-10T20:13:54.356Z,5.24
2023-03-10T20:19:00.547Z,5.34
2023-03-10T20:24:07.037Z,5.38
2023-03-10T20:29:12.701Z,5.50
2023-03-10T20:34:22.059Z,5.71
2023-03-10T20:39:27.834Z,5.84
2023-03-10T20:44:33.380Z,5.88
2023-03-10T20:49:38.859Z,5.85
2023-03-10T20:54:44.494Z,5.89
2023-03-10T20:59:50.044Z,5.94
2023-03-10T21:04:56.418Z,6.08
2023-03-10T21:10:04.032Z,6.16
2023-03-10T21:15:13.413Z,6.16
2023-03-10T21:20:21.190Z,6.12
2023-03-10T21:25:28.509Z,6.09
2023-03-10T21:30:35.282Z,6.07
2023-03-10T21:35:43.043Z,6.07
2023-03-10T21:40:48.411Z,6.00
2023-03-10T21:45:53.960Z,5.89
2023-03-10T21:50:59.792Z,5.83
2023-03-10T21:56:06.313Z,5.82
2023-03-10T22:01:14.511Z,5.82
2023-03-10T22:06:20.431Z,5.83
2023-03-10T22:11:26.366Z,5.81
2023-03-10T22:16:32.033Z,5.80
2023-03-10T22:21:37.535Z,5.84
2023-03-10T22:26:43.213Z,5.89
2023-03-10T22:31:50.358Z,5.88
2023-03-10T22:36:55.984Z,5.84
2023-03-10T22:42:01.508Z,5.89
2023-03-10T22:47:08.171Z,5.99
2023-03-10T22:52:13.629Z,6.11
2023-03-10T22:57:19.295Z,6.18
2023-03-10T23:02:24.849Z,6.21
2023-03-10T23:07:30.442Z,6.30
2023-03-10T23:12:35.814Z,6.37
2023-03-10T23:17:41.305Z,6.40
2023-03-10T23:22:47.758Z,6.40
2023-03-10T23:27:53.439Z,6.43
2023-03-10T23:32:59.393Z,6.50
2023-03-10T23:38:07.075Z,6.55
2023-03-10T23:43:13.485Z,6.56
2023-03-10T23:48:20.494Z,6.58
2023-03-10T23:53:28.481Z,6.57
2023-03-10T23:58:34.262Z,6.53
